sensor_id;sensor_type;location;lat;lon;timestamp;P1;durP1;ratioP1;P2;durP2;ratioP2
10939;SDS011;5522;42.696;23.494;2023-01-26T00:02:17;1.70;;;0.93;;
10939;SDS011;5522;42.696;23.494;2023-01-26T00:04:44;2.63;;;1.02;;
10939;SDS011;5522;42.696;23.494;2023-01-26T00:07:11;3.58;;;1.63;;
10939;SDS011;5522;42.696;23.494;2023-01-26T00:09:38;4.97;;;1.40;;
10939;SDS011;5522;42.696;23.494;2023-01-26T00:12:05;2.08;;;0.85;;
10939;SDS011;5522;42.696;23.494;2023-01-26T00:14:32;3.15;;;1.05;;
10939;SDS011;5522;42.696;23.494;2023-01-26T00:17:15;2.30;;;1.08;;
10939;SDS011;5522;42.696;23.494;2023-01-26T00:19:53;3.67;;;0.90;;
10939;SDS011;5522;42.696;23.494;2023-01-26T00:22:21;4.07;;;1.33;;
10939;SDS011;5522;42.696;23.494;2023-01-26T00:24:49;0.82;;;0.82;;
10939;SDS011;5522;42.696;23.494;2023-01-26T00:27:16;1.45;;;0.95;;
10939;SDS011;5522;42.696;23.494;2023-01-26T00:29:43;1.10;;;0.93;;
10939;SDS011;5522;42.696;23.494;2023-01-26T00:32:10;2.20;;;1.20;;
10939;SDS011;5522;42.696;23.494;2023-01-26T00:34:38;1.05;;;0.90;;
10939;SDS011;5522;42.696;23.494;2023-01-26T00:37:05;1.17;;;0.90;;
10939;SDS011;5522;42.696;23.494;2023-01-26T00:39:32;2.55;;;1.00;;
10939;SDS011;5522;42.696;23.494;2023-01-26T00:42:00;1.40;;;0.90;;
10939;SDS011;5522;42.696;23.494;2023-01-26T00:44:37;1.73;;;1.00;;
10939;SDS011;5522;42.696;23.494;2023-01-26T00:47:05;2.08;;;1.00;;
10939;SDS011;5522;42.696;23.494;2023-01-26T00:49:34;1.27;;;0.88;;
10939;SDS011;5522;42.696;23.494;2023-01-26T00:52:02;0.88;;;0.70;;
10939;SDS011;5522;42.696;23.494;2023-01-26T00:54:29;2.15;;;1.05;;
10939;SDS011;5522;42.696;23.494;2023-01-26T00:56:56;1.13;;;0.82;;
10939;SDS011;5522;42.696;23.494;2023-01-26T00:59:23;2.70;;;0.77;;
10939;SDS011;5522;42.696;23.494;2023-01-26T01:07:00;2.60;;;1.10;;
10939;SDS011;5522;42.696;23.494;2023-01-26T01:09:28;1.02;;;0.70;;
10939;SDS011;5522;42.696;23.494;2023-01-26T01:11:55;3.33;;;1.13;;
10939;SDS011;5522;42.696;23.494;2023-01-26T01:14:22;1.33;;;1.23;;
10939;SDS011;5522;42.696;23.494;2023-01-26T01:16:49;2.45;;;1.50;;
10939;SDS011;5522;42.696;23.494;2023-01-26T01:19:16;1.55;;;1.33;;
10939;SDS011;5522;42.696;23.494;2023-01-26T01:21:44;1.30;;;1.20;;
10939;SDS011;5522;42.696;23.494;2023-01-26T01:24:11;1.15;;;0.90;;
10939;SDS011;5522;42.696;23.494;2023-01-26T01:26:39;1.27;;;1.13;;
10939;SDS011;5522;42.696;23.494;2023-01-26T01:29:06;2.70;;;1.40;;
10939;SDS011;5522;42.696;23.494;2023-01-26T01:31:33;2.22;;;0.80;;
10939;SDS011;5522;42.696;23.494;2023-01-26T01:34:00;1.77;;;1.00;;
10939;SDS011;5522;42.696;23.494;2023-01-26T01:36:26;1.23;;;0.70;;
10939;SDS011;5522;42.696;23.494;2023-01-26T01:38:55;1.98;;;1.25;;
10939;SDS011;5522;42.696;23.494;2023-01-26T01:41:22;2.38;;;1.02;;
10939;SDS011;5522;42.696;23.494;2023-01-26T01:43:51;1.75;;;1.10;;
10939;SDS011;5522;42.696;23.494;2023-01-26T01:46:33;0.98;;;0.85;;
10939;SDS011;5522;42.696;23.494;2023-01-26T01:49:03;2.15;;;0.95;;
10939;SDS011;5522;42.696;23.494;2023-01-26T01:51:33;1.80;;;0.95;;
10939;SDS011;5522;42.696;23.494;2023-01-26T01:54:06;2.53;;;0.82;;
10939;SDS011;5522;42.696;23.494;2023-01-26T01:56:36;1.52;;;0.90;;
10939;SDS011;5522;42.696;23.494;2023-01-26T01:59:09;1.77;;;1.17;;
10939;SDS011;5522;42.696;23.494;2023-01-26T02:01:38;1.60;;;1.05;;
10939;SDS011;5522;42.696;23.494;2023-01-26T02:04:06;1.08;;;0.88;;
10939;SDS011;5522;42.696;23.494;2023-01-26T02:06:37;1.52;;;1.35;;
10939;SDS011;5522;42.696;23.494;2023-01-26T02:09:07;1.98;;;0.95;;
10939;SDS011;5522;42.696;23.494;2023-01-26T02:11:56;1.90;;;0.82;;
10939;SDS011;5522;42.696;23.494;2023-01-26T02:14:25;1.23;;;1.00;;
10939;SDS011;5522;42.696;23.494;2023-01-26T02:16:54;1.35;;;1.10;;
10939;SDS011;5522;42.696;23.494;2023-01-26T02:19:24;0.93;;;0.68;;
10939;SDS011;5522;42.696;23.494;2023-01-26T02:21:56;3.90;;;1.15;;
10939;SDS011;5522;42.696;23.494;2023-01-26T02:24:31;1.00;;;0.85;;
10939;SDS011;5522;42.696;23.494;2023-01-26T02:27:03;1.40;;;0.82;;
10939;SDS011;5522;42.696;23.494;2023-01-26T02:29:31;2.15;;;0.90;;
10939;SDS011;5522;42.696;23.494;2023-01-26T02:31:57;1.48;;;0.80;;
10939;SDS011;5522;42.696;23.494;2023-01-26T02:34:24;4.82;;;0.90;;
10939;SDS011;5522;42.696;23.494;2023-01-26T02:36:56;1.45;;;1.17;;
10939;SDS011;5522;42.696;23.494;2023-01-26T02:39:25;1.02;;;0.80;;
10939;SDS011;5522;42.696;23.494;2023-01-26T02:42:04;2.13;;;0.90;;
10939;SDS011;5522;42.696;23.494;2023-01-26T02:44:49;1.35;;;0.57;;
10939;SDS011;5522;42.696;23.494;2023-01-26T02:47:16;1.10;;;0.80;;
10939;SDS011;5522;42.696;23.494;2023-01-26T02:49:44;1.90;;;1.20;;
10939;SDS011;5522;42.696;23.494;2023-01-26T02:52:15;2.45;;;1.00;;
10939;SDS011;5522;42.696;23.494;2023-01-26T02:54:43;0.95;;;0.77;;
10939;SDS011;5522;42.696;23.494;2023-01-26T02:57:29;1.45;;;1.10;;
10939;SDS011;5522;42.696;23.494;2023-01-26T02:59:56;1.27;;;1.10;;
10939;SDS011;5522;42.696;23.494;2023-01-26T03:02:23;1.92;;;0.80;;
10939;SDS011;5522;42.696;23.494;2023-01-26T03:04:50;0.80;;;0.60;;
10939;SDS011;5522;42.696;23.494;2023-01-26T03:07:16;0.63;;;0.60;;
10939;SDS011;5522;42.696;23.494;2023-01-26T03:09:44;1.25;;;0.60;;
10939;SDS011;5522;42.696;23.494;2023-01-26T03:12:10;0.73;;;0.73;;
10939;SDS011;5522;42.696;23.494;2023-01-26T03:14:40;1.27;;;0.80;;
10939;SDS011;5522;42.696;23.494;2023-01-26T03:17:06;1.80;;;0.70;;
10939;SDS011;5522;42.696;23.494;2023-01-26T03:19:33;0.65;;;0.60;;
10939;SDS011;5522;42.696;23.494;2023-01-26T03:22:26;0.63;;;0.63;;
10939;SDS011;5522;42.696;23.494;2023-01-26T03:25:11;0.60;;;0.60;;
10939;SDS011;5522;42.696;23.494;2023-01-26T03:27:55;0.70;;;0.70;;
10939;SDS011;5522;42.696;23.494;2023-01-26T03:30:23;0.60;;;0.60;;
10939;SDS011;5522;42.696;23.494;2023-01-26T03:32:50;1.08;;;0.90;;
10939;SDS011;5522;42.696;23.494;2023-01-26T03:35:17;1.10;;;0.70;;
10939;SDS011;5522;42.696;23.494;2023-01-26T03:37:46;1.35;;;1.20;;
10939;SDS011;5522;42.696;23.494;2023-01-26T03:40:18;1.48;;;1.10;;
10939;SDS011;5522;42.696;23.494;2023-01-26T03:43:05;1.25;;;1.10;;
10939;SDS011;5522;42.696;23.494;2023-01-26T03:45:51;0.98;;;0.98;;
10939;SDS011;5522;42.696;23.494;2023-01-26T03:48:36;0.80;;;0.80;;
10939;SDS011;5522;42.696;23.494;2023-01-26T03:51:20;0.68;;;0.65;;
10939;SDS011;5522;42.696;23.494;2023-01-26T03:54:04;0.57;;;0.50;;
10939;SDS011;5522;42.696;23.494;2023-01-26T03:56:48;0.63;;;0.50;;
10939;SDS011;5522;42.696;23.494;2023-01-26T03:59:15;1.38;;;0.70;;
10939;SDS011;5522;42.696;23.494;2023-01-26T04:01:46;0.60;;;0.55;;
10939;SDS011;5522;42.696;23.494;2023-01-26T04:04:30;0.52;;;0.52;;
10939;SDS011;5522;42.696;23.494;2023-01-26T04:07:15;0.63;;;0.63;;
10939;SDS011;5522;42.696;23.494;2023-01-26T04:09:59;1.00;;;0.70;;
10939;SDS011;5522;42.696;23.494;2023-01-26T04:12:26;0.50;;;0.50;;
10939;SDS011;5522;42.696;23.494;2023-01-26T04:14:53;1.50;;;0.63;;
10939;SDS011;5522;42.696;23.494;2023-01-26T04:17:38;0.50;;;0.50;;
10939;SDS011;5522;42.696;23.494;2023-01-26T04:20:23;1.63;;;0.40;;
10939;SDS011;5522;42.696;23.494;2023-01-26T04:23:14;0.63;;;0.50;;
10939;SDS011;5522;42.696;23.494;2023-01-26T04:25:42;0.70;;;0.70;;
10939;SDS011;5522;42.696;23.494;2023-01-26T04:28:09;0.68;;;0.50;;
10939;SDS011;5522;42.696;23.494;2023-01-26T04:30:36;0.65;;;0.50;;
10939;SDS011;5522;42.696;23.494;2023-01-26T04:33:05;0.98;;;0.60;;
10939;SDS011;5522;42.696;23.494;2023-01-26T04:35:32;1.52;;;0.65;;
10939;SDS011;5522;42.696;23.494;2023-01-26T04:37:59;0.88;;;0.77;;
10939;SDS011;5522;42.696;23.494;2023-01-26T04:40:25;0.73;;;0.73;;
10939;SDS011;5522;42.696;23.494;2023-01-26T04:42:52;0.65;;;0.65;;
10939;SDS011;5522;42.696;23.494;2023-01-26T04:45:19;1.10;;;0.70;;
10939;SDS011;5522;42.696;23.494;2023-01-26T04:47:46;1.50;;;1.27;;
10939;SDS011;5522;42.696;23.494;2023-01-26T04:50:14;1.35;;;0.98;;
10939;SDS011;5522;42.696;23.494;2023-01-26T04:52:41;0.73;;;0.50;;
10939;SDS011;5522;42.696;23.494;2023-01-26T04:55:08;0.73;;;0.43;;
10939;SDS011;5522;42.696;23.494;2023-01-26T04:57:35;1.17;;;0.47;;
10939;SDS011;5522;42.696;23.494;2023-01-26T05:00:02;0.40;;;0.40;;
10939;SDS011;5522;42.696;23.494;2023-01-26T05:02:30;0.70;;;0.50;;
10939;SDS011;5522;42.696;23.494;2023-01-26T05:04:56;0.50;;;0.50;;
10939;SDS011;5522;42.696;23.494;2023-01-26T05:07:25;0.57;;;0.50;;
10939;SDS011;5522;42.696;23.494;2023-01-26T05:09:51;0.52;;;0.52;;
10939;SDS011;5522;42.696;23.494;2023-01-26T05:12:19;1.02;;;0.70;;
10939;SDS011;5522;42.696;23.494;2023-01-26T05:14:59;0.68;;;0.68;;
10939;SDS011;5522;42.696;23.494;2023-01-26T05:17:25;1.52;;;1.10;;
10939;SDS011;5522;42.696;23.494;2023-01-26T05:19:52;1.40;;;1.25;;
10939;SDS011;5522;42.696;23.494;2023-01-26T05:22:22;1.13;;;1.00;;
10939;SDS011;5522;42.696;23.494;2023-01-26T05:24:50;1.55;;;1.42;;
10939;SDS011;5522;42.696;23.494;2023-01-26T05:27:17;1.70;;;1.33;;
10939;SDS011;5522;42.696;23.494;2023-01-26T05:29:47;1.95;;;1.70;;
10939;SDS011;5522;42.696;23.494;2023-01-26T05:32:14;4.28;;;2.10;;
10939;SDS011;5522;42.696;23.494;2023-01-26T05:34:41;3.35;;;1.70;;
10939;SDS011;5522;42.696;23.494;2023-01-26T05:37:08;2.97;;;2.15;;
10939;SDS011;5522;42.696;23.494;2023-01-26T05:39:34;3.97;;;2.03;;
10939;SDS011;5522;42.696;23.494;2023-01-26T05:42:03;2.97;;;2.22;;
10939;SDS011;5522;42.696;23.494;2023-01-26T05:44:30;4.90;;;2.20;;
10939;SDS011;5522;42.696;23.494;2023-01-26T05:46:56;2.30;;;1.95;;
10939;SDS011;5522;42.696;23.494;2023-01-26T05:49:23;3.83;;;2.53;;
10939;SDS011;5522;42.696;23.494;2023-01-26T05:51:50;3.53;;;2.38;;
10939;SDS011;5522;42.696;23.494;2023-01-26T05:54:17;3.75;;;1.80;;
10939;SDS011;5522;42.696;23.494;2023-01-26T05:56:44;3.47;;;2.45;;
10939;SDS011;5522;42.696;23.494;2023-01-26T05:59:13;3.42;;;2.30;;
10939;SDS011;5522;42.696;23.494;2023-01-26T06:01:40;3.15;;;2.22;;
10939;SDS011;5522;42.696;23.494;2023-01-26T06:04:07;3.15;;;2.03;;
10939;SDS011;5522;42.696;23.494;2023-01-26T06:06:34;5.22;;;2.60;;
10939;SDS011;5522;42.696;23.494;2023-01-26T06:09:01;3.33;;;2.42;;
10939;SDS011;5522;42.696;23.494;2023-01-26T06:11:28;4.22;;;1.70;;
10939;SDS011;5522;42.696;23.494;2023-01-26T06:13:54;5.43;;;2.70;;
10939;SDS011;5522;42.696;23.494;2023-01-26T06:16:23;3.47;;;3.03;;
10939;SDS011;5522;42.696;23.494;2023-01-26T06:18:49;5.40;;;3.30;;
10939;SDS011;5522;42.696;23.494;2023-01-26T06:21:16;4.60;;;3.30;;
10939;SDS011;5522;42.696;23.494;2023-01-26T06:23:43;5.05;;;2.70;;
10939;SDS011;5522;42.696;23.494;2023-01-26T06:26:10;5.55;;;3.17;;
10939;SDS011;5522;42.696;23.494;2023-01-26T06:28:37;7.28;;;4.10;;
10939;SDS011;5522;42.696;23.494;2023-01-26T06:31:05;5.28;;;3.80;;
10939;SDS011;5522;42.696;23.494;2023-01-26T06:33:34;4.93;;;3.15;;
10939;SDS011;5522;42.696;23.494;2023-01-26T06:36:02;9.30;;;4.07;;
10939;SDS011;5522;42.696;23.494;2023-01-26T06:38:30;3.90;;;3.47;;
10939;SDS011;5522;42.696;23.494;2023-01-26T06:40:58;4.50;;;3.15;;
10939;SDS011;5522;42.696;23.494;2023-01-26T06:43:27;4.70;;;3.95;;
10939;SDS011;5522;42.696;23.494;2023-01-26T06:45:54;5.10;;;3.63;;
10939;SDS011;5522;42.696;23.494;2023-01-26T06:48:22;4.45;;;3.17;;
10939;SDS011;5522;42.696;23.494;2023-01-26T06:50:51;4.93;;;2.42;;
10939;SDS011;5522;42.696;23.494;2023-01-26T06:53:28;3.78;;;3.10;;
10939;SDS011;5522;42.696;23.494;2023-01-26T06:55:55;4.15;;;3.10;;
10939;SDS011;5522;42.696;23.494;2023-01-26T06:58:22;3.70;;;2.72;;
10939;SDS011;5522;42.696;23.494;2023-01-26T07:00:49;3.17;;;2.15;;
10939;SDS011;5522;42.696;23.494;2023-01-26T07:03:16;2.35;;;1.83;;
10939;SDS011;5522;42.696;23.494;2023-01-26T07:05:43;1.88;;;1.58;;
10939;SDS011;5522;42.696;23.494;2023-01-26T07:08:11;2.58;;;1.92;;
10939;SDS011;5522;42.696;23.494;2023-01-26T07:10:38;3.80;;;2.42;;
10939;SDS011;5522;42.696;23.494;2023-01-26T07:13:05;5.32;;;2.78;;
10939;SDS011;5522;42.696;23.494;2023-01-26T07:15:32;3.13;;;2.13;;
10939;SDS011;5522;42.696;23.494;2023-01-26T07:17:59;3.17;;;2.17;;
10939;SDS011;5522;42.696;23.494;2023-01-26T07:20:26;4.03;;;3.15;;
10939;SDS011;5522;42.696;23.494;2023-01-26T07:22:53;5.68;;;3.15;;
10939;SDS011;5522;42.696;23.494;2023-01-26T07:25:21;5.05;;;3.40;;
10939;SDS011;5522;42.696;23.494;2023-01-26T07:27:48;3.80;;;3.45;;
10939;SDS011;5522;42.696;23.494;2023-01-26T07:30:21;4.78;;;3.28;;
10939;SDS011;5522;42.696;23.494;2023-01-26T07:32:48;5.28;;;3.85;;
10939;SDS011;5522;42.696;23.494;2023-01-26T07:35:14;5.10;;;2.97;;
10939;SDS011;5522;42.696;23.494;2023-01-26T07:37:42;4.80;;;3.17;;
10939;SDS011;5522;42.696;23.494;2023-01-26T07:40:09;6.57;;;3.13;;
10939;SDS011;5522;42.696;23.494;2023-01-26T07:42:38;5.93;;;3.78;;
10939;SDS011;5522;42.696;23.494;2023-01-26T07:45:05;7.10;;;4.15;;
10939;SDS011;5522;42.696;23.494;2023-01-26T07:47:33;6.72;;;4.35;;
10939;SDS011;5522;42.696;23.494;2023-01-26T07:50:00;5.80;;;3.97;;
10939;SDS011;5522;42.696;23.494;2023-01-26T07:52:27;4.35;;;3.58;;
10939;SDS011;5522;42.696;23.494;2023-01-26T07:54:54;8.40;;;4.30;;
10939;SDS011;5522;42.696;23.494;2023-01-26T07:57:21;6.03;;;4.10;;
10939;SDS011;5522;42.696;23.494;2023-01-26T07:59:49;4.65;;;3.72;;
10939;SDS011;5522;42.696;23.494;2023-01-26T08:02:16;5.68;;;4.25;;
10939;SDS011;5522;42.696;23.494;2023-01-26T08:04:43;5.18;;;4.13;;
10939;SDS011;5522;42.696;23.494;2023-01-26T08:07:10;6.38;;;5.10;;
10939;SDS011;5522;42.696;23.494;2023-01-26T08:09:36;5.05;;;4.20;;
10939;SDS011;5522;42.696;23.494;2023-01-26T08:12:04;6.18;;;4.25;;
10939;SDS011;5522;42.696;23.494;2023-01-26T08:14:31;8.52;;;5.38;;
10939;SDS011;5522;42.696;23.494;2023-01-26T08:16:59;11.15;;;7.03;;
10939;SDS011;5522;42.696;23.494;2023-01-26T08:19:26;8.07;;;5.90;;
10939;SDS011;5522;42.696;23.494;2023-01-26T08:21:53;7.22;;;5.53;;
10939;SDS011;5522;42.696;23.494;2023-01-26T08:24:21;5.57;;;5.07;;
10939;SDS011;5522;42.696;23.494;2023-01-26T08:26:48;7.22;;;4.85;;
10939;SDS011;5522;42.696;23.494;2023-01-26T08:29:15;10.30;;;7.90;;
10939;SDS011;5522;42.696;23.494;2023-01-26T08:31:42;8.40;;;6.65;;
10939;SDS011;5522;42.696;23.494;2023-01-26T08:34:10;7.70;;;5.85;;
10939;SDS011;5522;42.696;23.494;2023-01-26T08:36:37;7.95;;;7.15;;
10939;SDS011;5522;42.696;23.494;2023-01-26T08:39:04;5.80;;;4.57;;
10939;SDS011;5522;42.696;23.494;2023-01-26T08:41:31;6.30;;;4.78;;
10939;SDS011;5522;42.696;23.494;2023-01-26T08:43:58;5.18;;;3.53;;
10939;SDS011;5522;42.696;23.494;2023-01-26T08:46:25;4.10;;;3.47;;
10939;SDS011;5522;42.696;23.494;2023-01-26T08:48:52;3.22;;;2.83;;
10939;SDS011;5522;42.696;23.494;2023-01-26T08:51:20;3.78;;;2.97;;
10939;SDS011;5522;42.696;23.494;2023-01-26T08:53:47;3.13;;;2.90;;
10939;SDS011;5522;42.696;23.494;2023-01-26T08:56:14;6.32;;;3.58;;
10939;SDS011;5522;42.696;23.494;2023-01-26T08:58:41;1.48;;;1.10;;
10939;SDS011;5522;42.696;23.494;2023-01-26T09:01:09;2.10;;;0.90;;
10939;SDS011;5522;42.696;23.494;2023-01-26T09:03:37;1.15;;;1.05;;
10939;SDS011;5522;42.696;23.494;2023-01-26T09:06:05;1.85;;;1.75;;
10939;SDS011;5522;42.696;23.494;2023-01-26T09:08:35;1.95;;;1.58;;
10939;SDS011;5522;42.696;23.494;2023-01-26T09:11:04;2.30;;;1.67;;
10939;SDS011;5522;42.696;23.494;2023-01-26T09:13:31;4.65;;;4.30;;
10939;SDS011;5522;42.696;23.494;2023-01-26T09:15:58;3.50;;;3.17;;
10939;SDS011;5522;42.696;23.494;2023-01-26T09:18:28;2.55;;;1.77;;
10939;SDS011;5522;42.696;23.494;2023-01-26T09:21:01;2.83;;;2.03;;
10939;SDS011;5522;42.696;23.494;2023-01-26T09:23:28;4.50;;;2.40;;
10939;SDS011;5522;42.696;23.494;2023-01-26T09:25:56;2.35;;;1.98;;
10939;SDS011;5522;42.696;23.494;2023-01-26T09:28:23;1.35;;;1.15;;
10939;SDS011;5522;42.696;23.494;2023-01-26T09:30:50;2.28;;;1.20;;
10939;SDS011;5522;42.696;23.494;2023-01-26T09:33:17;1.20;;;1.10;;
10939;SDS011;5522;42.696;23.494;2023-01-26T09:35:45;2.88;;;1.48;;
10939;SDS011;5522;42.696;23.494;2023-01-26T09:38:12;1.92;;;1.15;;
10939;SDS011;5522;42.696;23.494;2023-01-26T09:40:40;2.08;;;1.88;;
10939;SDS011;5522;42.696;23.494;2023-01-26T09:43:22;1.95;;;1.85;;
10939;SDS011;5522;42.696;23.494;2023-01-26T09:45:55;2.78;;;2.17;;
10939;SDS011;5522;42.696;23.494;2023-01-26T09:48:30;1.50;;;1.38;;
10939;SDS011;5522;42.696;23.494;2023-01-26T09:51:04;1.42;;;1.30;;
10939;SDS011;5522;42.696;23.494;2023-01-26T09:53:39;1.60;;;1.50;;
10939;SDS011;5522;42.696;23.494;2023-01-26T09:56:12;1.55;;;1.42;;
10939;SDS011;5522;42.696;23.494;2023-01-26T09:58:44;2.25;;;1.58;;
10939;SDS011;5522;42.696;23.494;2023-01-26T10:01:16;1.40;;;1.30;;
10939;SDS011;5522;42.696;23.494;2023-01-26T10:03:49;1.75;;;1.30;;
10939;SDS011;5522;42.696;23.494;2023-01-26T10:06:25;3.15;;;1.20;;
10939;SDS011;5522;42.696;23.494;2023-01-26T10:08:56;0.70;;;0.70;;
10939;SDS011;5522;42.696;23.494;2023-01-26T10:11:26;1.95;;;1.52;;
10939;SDS011;5522;42.696;23.494;2023-01-26T10:14:00;1.13;;;1.10;;
10939;SDS011;5522;42.696;23.494;2023-01-26T10:16:32;3.08;;;2.00;;
10939;SDS011;5522;42.696;23.494;2023-01-26T10:19:00;2.53;;;2.33;;
10939;SDS011;5522;42.696;23.494;2023-01-26T10:21:30;0.80;;;0.80;;
10939;SDS011;5522;42.696;23.494;2023-01-26T10:23:59;2.30;;;0.95;;
10939;SDS011;5522;42.696;23.494;2023-01-26T10:26:29;0.40;;;0.40;;
10939;SDS011;5522;42.696;23.494;2023-01-26T10:28:57;0.50;;;0.50;;
10939;SDS011;5522;42.696;23.494;2023-01-26T10:31:26;0.40;;;0.40;;
10939;SDS011;5522;42.696;23.494;2023-01-26T10:33:55;0.40;;;0.40;;
10939;SDS011;5522;42.696;23.494;2023-01-26T10:36:26;0.68;;;0.40;;
10939;SDS011;5522;42.696;23.494;2023-01-26T10:38:56;0.80;;;0.40;;
10939;SDS011;5522;42.696;23.494;2023-01-26T10:41:29;1.58;;;1.48;;
10939;SDS011;5522;42.696;23.494;2023-01-26T10:43:56;0.50;;;0.50;;
10939;SDS011;5522;42.696;23.494;2023-01-26T10:46:27;0.88;;;0.52;;
10939;SDS011;5522;42.696;23.494;2023-01-26T10:48:58;0.57;;;0.55;;
10939;SDS011;5522;42.696;23.494;2023-01-26T10:51:28;0.45;;;0.45;;
10939;SDS011;5522;42.696;23.494;2023-01-26T10:56:49;1.52;;;1.42;;
10939;SDS011;5522;42.696;23.494;2023-01-26T10:59:25;0.65;;;0.65;;
10939;SDS011;5522;42.696;23.494;2023-01-26T11:01:58;2.10;;;0.65;;
10939;SDS011;5522;42.696;23.494;2023-01-26T11:04:26;4.45;;;2.72;;
10939;SDS011;5522;42.696;23.494;2023-01-26T11:06:54;1.77;;;1.67;;
10939;SDS011;5522;42.696;23.494;2023-01-26T11:09:24;1.80;;;1.70;;
10939;SDS011;5522;42.696;23.494;2023-01-26T11:11:53;0.75;;;0.70;;
10939;SDS011;5522;42.696;23.494;2023-01-26T11:14:25;0.50;;;0.50;;
10939;SDS011;5522;42.696;23.494;2023-01-26T11:16:53;0.85;;;0.57;;
10939;SDS011;5522;42.696;23.494;2023-01-26T11:19:31;0.50;;;0.50;;
10939;SDS011;5522;42.696;23.494;2023-01-26T11:22:14;2.75;;;2.47;;
10939;SDS011;5522;42.696;23.494;2023-01-26T11:24:48;1.00;;;1.00;;
10939;SDS011;5522;42.696;23.494;2023-01-26T11:27:26;1.60;;;1.25;;
10939;SDS011;5522;42.696;23.494;2023-01-26T11:30:25;1.20;;;1.10;;
10939;SDS011;5522;42.696;23.494;2023-01-26T11:33:19;4.00;;;3.70;;
10939;SDS011;5522;42.696;23.494;2023-01-26T11:35:56;0.45;;;0.45;;
10939;SDS011;5522;42.696;23.494;2023-01-26T11:38:37;1.10;;;0.50;;
10939;SDS011;5522;42.696;23.494;2023-01-26T11:41:11;1.05;;;0.65;;
10939;SDS011;5522;42.696;23.494;2023-01-26T11:43:50;10.18;;;8.02;;
10939;SDS011;5522;42.696;23.494;2023-01-26T11:46:43;2.55;;;1.02;;
10939;SDS011;5522;42.696;23.494;2023-01-26T11:49:26;1.45;;;1.20;;
10939;SDS011;5522;42.696;23.494;2023-01-26T11:52:04;0.70;;;0.52;;
10939;SDS011;5522;42.696;23.494;2023-01-26T11:54:51;2.25;;;2.15;;
10939;SDS011;5522;42.696;23.494;2023-01-26T11:57:30;0.70;;;0.70;;
10939;SDS011;5522;42.696;23.494;2023-01-26T12:00:03;5.88;;;2.13;;
10939;SDS011;5522;42.696;23.494;2023-01-26T12:02:39;4.43;;;1.17;;
10939;SDS011;5522;42.696;23.494;2023-01-26T12:05:13;11.93;;;3.10;;
10939;SDS011;5522;42.696;23.494;2023-01-26T12:07:46;0.70;;;0.70;;
10939;SDS011;5522;42.696;23.494;2023-01-26T12:10:18;0.47;;;0.47;;
10939;SDS011;5522;42.696;23.494;2023-01-26T12:12:50;0.50;;;0.50;;
10939;SDS011;5522;42.696;23.494;2023-01-26T12:15:21;3.05;;;1.20;;
10939;SDS011;5522;42.696;23.494;2023-01-26T12:17:57;0.80;;;0.80;;
10939;SDS011;5522;42.696;23.494;2023-01-26T12:20:28;0.95;;;0.70;;
10939;SDS011;5522;42.696;23.494;2023-01-26T12:23:02;0.95;;;0.77;;
10939;SDS011;5522;42.696;23.494;2023-01-26T12:25:32;3.53;;;3.22;;
10939;SDS011;5522;42.696;23.494;2023-01-26T12:28:04;1.98;;;1.33;;
10939;SDS011;5522;42.696;23.494;2023-01-26T12:30:40;0.98;;;0.70;;
10939;SDS011;5522;42.696;23.494;2023-01-26T12:33:13;2.50;;;1.58;;
10939;SDS011;5522;42.696;23.494;2023-01-26T12:35:56;1.70;;;1.60;;
10939;SDS011;5522;42.696;23.494;2023-01-26T12:38:38;1.83;;;1.65;;
10939;SDS011;5522;42.696;23.494;2023-01-26T12:41:12;1.98;;;1.88;;
10939;SDS011;5522;42.696;23.494;2023-01-26T12:43:53;3.28;;;2.72;;
10939;SDS011;5522;42.696;23.494;2023-01-26T12:46:29;3.67;;;3.03;;
10939;SDS011;5522;42.696;23.494;2023-01-26T12:49:00;3.50;;;2.53;;
10939;SDS011;5522;42.696;23.494;2023-01-26T12:51:32;4.50;;;2.50;;
10939;SDS011;5522;42.696;23.494;2023-01-26T12:54:09;2.40;;;2.13;;
10939;SDS011;5522;42.696;23.494;2023-01-26T12:56:43;3.17;;;2.83;;
10939;SDS011;5522;42.696;23.494;2023-01-26T12:59:17;2.53;;;2.33;;
10939;SDS011;5522;42.696;23.494;2023-01-26T13:01:46;10.95;;;8.63;;
10939;SDS011;5522;42.696;23.494;2023-01-26T13:04:13;2.50;;;2.25;;
10939;SDS011;5522;42.696;23.494;2023-01-26T13:06:43;1.40;;;1.30;;
10939;SDS011;5522;42.696;23.494;2023-01-26T13:09:20;4.85;;;4.45;;
10939;SDS011;5522;42.696;23.494;2023-01-26T13:11:50;1.88;;;1.77;;
10939;SDS011;5522;42.696;23.494;2023-01-26T13:14:26;4.07;;;3.70;;
10939;SDS011;5522;42.696;23.494;2023-01-26T13:23:40;2.17;;;1.30;;
10939;SDS011;5522;42.696;23.494;2023-01-26T13:26:12;2.03;;;1.50;;
10939;SDS011;5522;42.696;23.494;2023-01-26T13:28:55;1.15;;;1.05;;
10939;SDS011;5522;42.696;23.494;2023-01-26T13:35:02;0.90;;;0.80;;
10939;SDS011;5522;42.696;23.494;2023-01-26T13:37:35;0.80;;;0.80;;
10939;SDS011;5522;42.696;23.494;2023-01-26T13:42:47;2.08;;;1.55;;
10939;SDS011;5522;42.696;23.494;2023-01-26T13:45:22;4.55;;;1.50;;
10939;SDS011;5522;42.696;23.494;2023-01-26T13:47:56;2.20;;;1.75;;
10939;SDS011;5522;42.696;23.494;2023-01-26T13:50:29;1.27;;;1.20;;
10939;SDS011;5522;42.696;23.494;2023-01-26T13:52:57;1.23;;;1.20;;
10939;SDS011;5522;42.696;23.494;2023-01-26T13:55:26;1.73;;;1.63;;
10939;SDS011;5522;42.696;23.494;2023-01-26T13:58:11;2.35;;;1.42;;
10939;SDS011;5522;42.696;23.494;2023-01-26T14:00:39;2.38;;;2.17;;
10939;SDS011;5522;42.696;23.494;2023-01-26T14:03:17;2.15;;;1.95;;
10939;SDS011;5522;42.696;23.494;2023-01-26T14:05:49;1.73;;;1.63;;
10939;SDS011;5522;42.696;23.494;2023-01-26T14:08:17;2.30;;;2.10;;
10939;SDS011;5522;42.696;23.494;2023-01-26T14:10:48;3.30;;;3.08;;
10939;SDS011;5522;42.696;23.494;2023-01-26T14:13:18;2.40;;;2.08;;
10939;SDS011;5522;42.696;23.494;2023-01-26T14:15:54;2.22;;;1.67;;
10939;SDS011;5522;42.696;23.494;2023-01-26T14:18:22;3.05;;;2.85;;
10939;SDS011;5522;42.696;23.494;2023-01-26T14:20:49;1.45;;;1.35;;
10939;SDS011;5522;42.696;23.494;2023-01-26T14:23:25;3.10;;;2.80;;
10939;SDS011;5522;42.696;23.494;2023-01-26T14:25:57;7.95;;;6.32;;
10939;SDS011;5522;42.696;23.494;2023-01-26T14:28:27;2.75;;;2.55;;
10939;SDS011;5522;42.696;23.494;2023-01-26T14:31:01;2.70;;;2.50;;
10939;SDS011;5522;42.696;23.494;2023-01-26T14:33:31;5.47;;;3.13;;
10939;SDS011;5522;42.696;23.494;2023-01-26T14:35:59;4.70;;;4.20;;
10939;SDS011;5522;42.696;23.494;2023-01-26T14:38:27;6.40;;;5.50;;
10939;SDS011;5522;42.696;23.494;2023-01-26T14:40:58;5.47;;;4.88;;
10939;SDS011;5522;42.696;23.494;2023-01-26T14:43:26;10.38;;;8.05;;
10939;SDS011;5522;42.696;23.494;2023-01-26T14:45:55;16.98;;;11.15;;
10939;SDS011;5522;42.696;23.494;2023-01-26T14:48:27;18.30;;;10.73;;
10939;SDS011;5522;42.696;23.494;2023-01-26T14:50:57;10.38;;;8.82;;
10939;SDS011;5522;42.696;23.494;2023-01-26T14:53:25;9.80;;;6.30;;
10939;SDS011;5522;42.696;23.494;2023-01-26T14:55:52;11.75;;;8.77;;
10939;SDS011;5522;42.696;23.494;2023-01-26T14:58:21;11.90;;;7.72;;
10939;SDS011;5522;42.696;23.494;2023-01-26T15:00:52;10.65;;;8.02;;
10939;SDS011;5522;42.696;23.494;2023-01-26T15:03:23;12.27;;;9.30;;
10939;SDS011;5522;42.696;23.494;2023-01-26T15:06:02;11.40;;;8.32;;
10939;SDS011;5522;42.696;23.494;2023-01-26T15:08:32;11.98;;;7.90;;
10939;SDS011;5522;42.696;23.494;2023-01-26T15:11:05;7.88;;;6.10;;
10939;SDS011;5522;42.696;23.494;2023-01-26T15:13:52;8.60;;;5.95;;
10939;SDS011;5522;42.696;23.494;2023-01-26T15:16:20;20.25;;;11.10;;
10939;SDS011;5522;42.696;23.494;2023-01-26T15:18:56;9.15;;;7.35;;
10939;SDS011;5522;42.696;23.494;2023-01-26T15:21:27;7.60;;;5.68;;
10939;SDS011;5522;42.696;23.494;2023-01-26T15:23:58;15.50;;;12.05;;
10939;SDS011;5522;42.696;23.494;2023-01-26T15:26:25;13.30;;;11.82;;
10939;SDS011;5522;42.696;23.494;2023-01-26T15:28:54;10.57;;;8.13;;